KRNH

New Richmond Regional Airport

New Richmond, Wisconsin, USA
METAR KRNH 202335Z AUTO 36007KT 7SM -RA SCT034 OVC045 18/16 A2998 RMK AO2 P0003 T01820161
Observed Flight Rules
Aug-20 @ 23:35 UTC (35 minutes ago) Visual Flight Rules
Wind Visibility Clouds Conditions
360° at 7 knots 7 miles
  • Scattered at 3,400' AGL
  • Overcast at 4,500' AGL
  • Light Rain
Temperatures Readings Precipitation
Current 18°C / 64°F
Dewpoint 16°C / 61°F
Humidity 88%
Altimeter 29.98" Hg
Pressure 1015 hPa
Elevation 304
Current Rain 0.03
METAR KRNH 202335Z AUTO 36007KT 7SM -RA SCT034 OVC045 18/16 A2998 RMK AO2 P0003 T01820161
Observed Flight Rules
Aug-20 @ 23:35 UTC
(35 minutes ago)
VFR
Wind Visibility
360° at 7 knots 7 miles
Clouds
  • Scattered at 3,400' AGL
  • Overcast at 4,500' AGL
Conditions
  • Light Rain
Temperature Dewpoint
18°C / 64°F 16°C / 61°F
Humidity Altimeter Pressure
88% 29.98" Hg 1015 hPa
Current Rain
0.03